This is the latest recevied weather packets stored in our database for station/object NT9M-13. If no packets are shown the sender has not sent any weather packets the latest 10 day(s).
| Time | Temp. | Humidity | Pressure | Rain* | Wind** | Luminosity | Snow |
|---|---|---|---|---|---|---|---|
| 1777705789 | 2.78° C | 89% | 1018.2 hPa | 0 mm | - | - | - |
| 1777703988 | 2.78° C | 87% | 1018.3 hPa | 0 mm | - | - | - |
| 1777700389 | 2.78° C | 84% | 1018.8 hPa | 0 mm | - | - | - |
| 1777695589 | 3.89° C | 81% | 1018.7 hPa | 0 mm | - | - | - |
| 1777694989 | 3.89° C | 80% | 1018.7 hPa | 0 mm | - | - | - |
| 1777693189 | 3.89° C | 78% | 1018.3 hPa | 0 mm | - | - | - |
| 1777691389 | 4.44° C | 79% | 1018.1 hPa | 0 mm | - | - | - |
| 1777687789 | 5.56° C | 77% | 1017.5 hPa | 0 mm | - | - | - |
| 1777682989 | 6.67° C | 72% | 1016.8 hPa | 0 mm | - | - | - |
| 1777682389 | 6.67° C | 72% | 1016.7 hPa | 0 mm | - | - | - |
| 1777681189 | 7.22° C | 70% | 1016.5 hPa | 0 mm | - | - | - |
| 1777680589 | 7.22° C | 68% | 1016.5 hPa | 0 mm | - | - | - |
| 1777679989 | 7.22° C | 67% | 1016.3 hPa | 0 mm | - | - | - |
| 1777678189 | 7.78° C | 67% | 1016 hPa | 0 mm | - | - | - |
| 1777674591 | 8.89° C | 66% | 1015.9 hPa | 0 mm | - | - | - |
| 1777673991 | 8.89° C | 65% | 1015.9 hPa | 0 mm | - | - | - |
| 1777668589 | 10° C | 74% | 1015.6 hPa | 0 mm | - | - | - |
| 1777666189 | 10.56° C | 70% | 1015.2 hPa | 0 mm | - | - | - |
| 1777663789 | 11.11° C | 69% | 1015.2 hPa | 0 mm | - | - | - |
| 1777663190 | 11.11° C | 73% | 1015 hPa | 0 mm | - | - | - |
| 1777660790 | 12.22° C | 72% | 1014.7 hPa | 0 mm | - | - | - |
| 1777660190 | 11.67° C | 75% | 1014.6 hPa | 0 mm | - | - | - |
| 1777654190 | 11.11° C | 77% | 1014 hPa | 0 mm | - | - | - |
| 1777649389 | 10.56° C | 89% | 1014 hPa | 0 mm | - | - | - |
| 1777643990 | 6.11° C | 98% | 1014 hPa | 0 mm | - | - | - |
* Rain latest hour (hover to see other rain measurements)
** Current wind speed in m/s (hover to see current wind gust speed)